Аэропорт: Байкал. Улан-Удэ

ICAO: UIUU

METAR:
2022-06-26 12:00:00
UIUU 261200Z 35003MPS 9999 NSC 26/12 Q1007 R26/60D NOSIG RMK QFE711/0948
METAR:
2022-06-26 11:00:00
TAF UIUU 261100Z 2612/2712 33003G08MPS 9999 SCT050CB